createdAt,value
2022-10-29T00:02:06.584Z,14.62
2022-10-29T00:04:33.151Z,14.38
2022-10-29T00:06:59.638Z,13.68
2022-10-29T00:09:26.227Z,14.41
2022-10-29T00:11:52.718Z,14.34
2022-10-29T00:14:19.249Z,14.31
2022-10-29T00:16:45.763Z,13.98
2022-10-29T00:19:12.269Z,14.53
2022-10-29T00:21:40.451Z,14.44
2022-10-29T00:24:09.947Z,14.53
2022-10-29T00:26:36.642Z,14.04
2022-10-29T00:29:03.423Z,14.33
2022-10-29T00:31:30.993Z,14.41
2022-10-29T00:33:57.744Z,14.21
2022-10-29T00:36:26.955Z,14.37
2022-10-29T00:38:53.995Z,13.14
2022-10-29T00:41:23.757Z,14.20
2022-10-29T00:43:52.491Z,14.16
2022-10-29T00:46:31.411Z,14.14
2022-10-29T00:48:58.878Z,14.23
2022-10-29T00:51:26.659Z,14.01
2022-10-29T00:53:58.490Z,13.07
2022-10-29T00:56:27.160Z,13.75
2022-10-29T00:58:53.896Z,14.13
2022-10-29T01:01:20.681Z,14.02
2022-10-29T01:03:47.519Z,14.08
2022-10-29T01:06:14.729Z,14.12
2022-10-29T01:08:41.265Z,13.86
2022-10-29T01:11:33.940Z,13.89
2022-10-29T01:14:15.567Z,14.08
2022-10-29T01:17:10.774Z,14.01
2022-10-29T01:20:21.641Z,13.68
2022-10-29T01:22:54.277Z,13.92
2022-10-29T01:25:42.112Z,13.89
2022-10-29T01:28:59.773Z,13.31
2022-10-29T01:31:47.369Z,13.93
2022-10-29T01:34:20.057Z,13.94
2022-10-29T01:36:56.005Z,13.78
2022-10-29T01:39:40.624Z,13.96
2022-10-29T01:42:34.589Z,13.98
2022-10-29T01:45:11.905Z,13.85
2022-10-29T01:47:42.989Z,13.99
2022-10-29T01:50:13.142Z,13.63
2022-10-29T01:52:40.821Z,13.99
2022-10-29T01:55:08.245Z,13.82
2022-10-29T01:57:37.411Z,12.85
2022-10-29T02:00:06.790Z,13.91
2022-10-29T02:02:48.641Z,13.89
2022-10-29T02:05:37.120Z,13.85
2022-10-29T02:08:20.878Z,13.84
2022-10-29T02:11:01.509Z,13.70
2022-10-29T02:13:34.551Z,13.65
2022-10-29T02:16:04.828Z,13.76
2022-10-29T02:18:31.340Z,13.15
2022-10-29T02:20:57.832Z,12.99
2022-10-29T02:23:24.346Z,13.61
2022-10-29T02:25:50.914Z,12.70
2022-10-29T02:28:17.637Z,12.83
2022-10-29T02:30:44.216Z,13.66
2022-10-29T02:33:10.750Z,13.44
2022-10-29T02:35:37.266Z,12.65
2022-10-29T02:38:03.828Z,12.97
2022-10-29T02:40:30.343Z,13.63
2022-10-29T02:42:57.209Z,13.46
2022-10-29T02:45:24.044Z,13.42
2022-10-29T02:47:50.554Z,12.37
2022-10-29T02:50:17.168Z,13.36
2022-10-29T02:52:43.704Z,13.30
2022-10-29T02:55:10.309Z,13.42
2022-10-29T02:57:36.799Z,13.25
2022-10-29T03:00:04.854Z,12.71
2022-10-29T03:02:31.513Z,13.42
2022-10-29T03:04:58.203Z,13.39
2022-10-29T03:07:24.679Z,13.26
2022-10-29T03:09:51.313Z,13.32
2022-10-29T03:12:17.815Z,12.83
2022-10-29T03:14:44.466Z,13.10
2022-10-29T03:17:11.105Z,13.11
2022-10-29T03:19:37.648Z,12.67
2022-10-29T03:22:04.145Z,13.24
2022-10-29T03:24:30.792Z,12.82
2022-10-29T03:26:57.327Z,12.20
2022-10-29T03:29:23.963Z,12.92
2022-10-29T03:31:50.522Z,13.35
2022-10-29T03:34:17.093Z,13.02
2022-10-29T03:36:43.609Z,13.18
2022-10-29T03:39:10.179Z,13.27
2022-10-29T03:41:36.729Z,13.27
2022-10-29T03:44:03.357Z,13.47
2022-10-29T03:46:29.946Z,12.58
2022-10-29T03:48:56.594Z,13.29
2022-10-29T03:51:23.148Z,12.59
2022-10-29T03:53:49.783Z,13.03
2022-10-29T03:56:16.322Z,12.99
2022-10-29T03:58:43.095Z,13.32
2022-10-29T04:01:10.920Z,13.15
2022-10-29T04:03:39.065Z,13.20
2022-10-29T04:06:14.644Z,13.14
2022-10-29T04:08:42.179Z,13.07
2022-10-29T04:11:13.310Z,13.18
2022-10-29T04:13:40.388Z,12.97
2022-10-29T04:16:07.277Z,13.04
2022-10-29T04:18:34.118Z,12.61
2022-10-29T04:27:07.990Z,13.19
2022-10-29T04:29:25.031Z,12.72
2022-10-29T04:31:51.547Z,12.96
2022-10-29T04:34:18.243Z,12.89
2022-10-29T04:36:45.494Z,13.05
2022-10-29T04:39:12.056Z,12.76
2022-10-29T04:41:38.793Z,12.72
2022-10-29T04:44:05.490Z,13.13
2022-10-29T04:46:32.174Z,13.06
2022-10-29T04:48:58.828Z,13.09
2022-10-29T04:51:26.800Z,13.07
2022-10-29T04:53:53.362Z,12.99
2022-10-29T04:56:20.075Z,12.93
2022-10-29T04:58:46.630Z,12.96
2022-10-29T05:01:13.375Z,12.27
2022-10-29T05:03:40.091Z,12.83
2022-10-29T05:06:07.091Z,12.37
2022-10-29T05:08:34.038Z,12.83
2022-10-29T05:11:05.230Z,12.71
2022-10-29T05:13:32.925Z,12.98
2022-10-29T05:15:59.606Z,12.24
2022-10-29T05:18:26.472Z,12.44
2022-10-29T05:20:57.201Z,12.92
2022-10-29T05:23:24.279Z,12.55
2022-10-29T05:25:52.375Z,12.99
2022-10-29T05:28:21.728Z,12.44
2022-10-29T05:30:50.129Z,13.02
2022-10-29T05:33:25.775Z,12.84
2022-10-29T05:35:52.504Z,12.69
2022-10-29T05:38:19.800Z,13.09
2022-10-29T05:40:46.668Z,13.11
2022-10-29T05:43:15.072Z,13.13
2022-10-29T05:45:42.454Z,12.65
2022-10-29T05:50:42.451Z,12.24
2022-10-29T05:53:12.026Z,13.20
2022-10-29T05:55:48.598Z,13.21
2022-10-29T05:58:15.215Z,12.66
2022-10-29T06:00:45.212Z,13.28
2022-10-29T06:03:14.748Z,12.61
2022-10-29T06:05:41.480Z,13.19
2022-10-29T06:08:08.092Z,12.98
2022-10-29T06:10:34.779Z,13.22
2022-10-29T06:13:01.442Z,12.65
2022-10-29T06:15:28.213Z,13.23
2022-10-29T06:17:55.071Z,12.25
2022-10-29T06:20:21.985Z,13.26
2022-10-29T06:22:57.121Z,13.45
2022-10-29T06:25:25.138Z,13.50
2022-10-29T06:28:05.458Z,13.38
2022-10-29T06:30:33.942Z,12.77
2022-10-29T06:33:01.309Z,12.30
2022-10-29T06:35:28.095Z,13.45
2022-10-29T06:37:55.330Z,13.47
2022-10-29T06:40:22.656Z,13.44
2022-10-29T06:42:49.290Z,12.71
2022-10-29T06:45:15.963Z,13.33
2022-10-29T06:47:44.666Z,13.50
2022-10-29T06:50:13.366Z,13.45
2022-10-29T06:52:40.159Z,13.33
2022-10-29T06:55:07.667Z,13.05
2022-10-29T06:57:34.371Z,13.14
2022-10-29T07:00:05.552Z,13.27
2022-10-29T07:02:35.106Z,13.16
2022-10-29T07:05:01.730Z,13.53
2022-10-29T07:07:29.002Z,13.62
2022-10-29T07:09:55.719Z,13.09
2022-10-29T07:12:22.224Z,13.23
2022-10-29T07:14:48.754Z,13.17
2022-10-29T07:17:15.343Z,13.32
2022-10-29T07:19:41.892Z,13.34
2022-10-29T07:22:08.786Z,13.86
2022-10-29T07:24:35.315Z,13.92
2022-10-29T07:27:02.092Z,13.91
2022-10-29T07:29:28.643Z,13.79
2022-10-29T07:41:44.496Z,13.81
2022-10-29T07:44:11.143Z,13.93
2022-10-29T07:46:37.650Z,14.08
2022-10-29T07:49:04.270Z,14.11
2022-10-29T07:51:30.755Z,14.33
2022-10-29T07:53:57.258Z,14.42
2022-10-29T07:56:23.765Z,14.54
2022-10-29T07:58:50.282Z,14.64
2022-10-29T08:01:16.828Z,14.73
2022-10-29T08:03:43.369Z,14.78
2022-10-29T08:06:09.947Z,14.83
2022-10-29T08:08:36.498Z,14.97
2022-10-29T08:11:04.538Z,15.05
2022-10-29T08:13:31.411Z,15.14
2022-10-29T08:15:58.023Z,15.24
2022-10-29T08:18:24.699Z,15.33
2022-10-29T08:20:51.357Z,15.34
2022-10-29T08:23:17.936Z,15.49
2022-10-29T08:25:44.569Z,15.57
2022-10-29T08:28:14.429Z,15.53
2022-10-29T08:30:42.089Z,15.75
2022-10-29T08:33:09.543Z,15.99
2022-10-29T08:35:36.062Z,16.29
2022-10-29T08:38:02.665Z,16.48
2022-10-29T08:40:45.494Z,16.64
2022-10-29T08:43:25.766Z,16.82
2022-10-29T08:45:54.971Z,16.91
2022-10-29T08:48:33.485Z,17.13
2022-10-29T08:51:09.141Z,17.27
2022-10-29T08:53:45.541Z,17.44
2022-10-29T08:56:28.492Z,17.74
2022-10-29T08:59:11.897Z,17.95
2022-10-29T09:01:38.919Z,17.94
2022-10-29T09:04:24.402Z,18.03
2022-10-29T09:07:14.726Z,18.02
2022-10-29T09:09:44.307Z,18.07
2022-10-29T09:12:16.877Z,18.11
2022-10-29T09:14:58.117Z,18.17
2022-10-29T09:17:49.446Z,18.16
2022-10-29T09:20:26.045Z,18.42
2022-10-29T09:23:03.407Z,18.57
2022-10-29T09:25:33.353Z,18.71
2022-10-29T09:28:32.902Z,18.93
2022-10-29T09:31:08.621Z,19.33
2022-10-29T09:33:35.138Z,19.58
2022-10-29T09:36:02.329Z,19.90
2022-10-29T09:38:35.416Z,20.13
2022-10-29T09:41:03.911Z,20.37
2022-10-29T09:43:45.479Z,20.61
2022-10-29T09:46:17.917Z,20.72
2022-10-29T09:49:23.722Z,21.01
2022-10-29T09:52:14.951Z,21.15
2022-10-29T09:54:41.662Z,21.09
2022-10-29T09:57:26.509Z,21.44
2022-10-29T09:59:59.178Z,21.70
2022-10-29T10:02:49.272Z,21.88
2022-10-29T10:05:23.018Z,21.99
2022-10-29T10:08:10.482Z,22.21
2022-10-29T10:10:51.157Z,22.26
2022-10-29T10:13:20.680Z,22.25
2022-10-29T10:16:22.539Z,22.24
2022-10-29T10:18:49.136Z,22.20
2022-10-29T10:21:30.892Z,22.30
2022-10-29T10:23:59.179Z,22.23
2022-10-29T10:26:43.141Z,22.51
2022-10-29T10:29:19.480Z,22.64
2022-10-29T10:31:55.200Z,22.86
2022-10-29T10:34:37.458Z,22.92
2022-10-29T10:37:09.853Z,23.02
2022-10-29T10:39:39.110Z,23.12
2022-10-29T10:42:15.903Z,23.17
2022-10-29T10:44:53.119Z,23.40
2022-10-29T10:47:24.425Z,23.67
2022-10-29T10:49:50.979Z,23.81
2022-10-29T10:52:21.059Z,24.00
2022-10-29T10:54:58.248Z,24.20
2022-10-29T10:57:28.244Z,24.36
2022-10-29T11:00:16.888Z,24.50
2022-10-29T11:02:56.407Z,24.60
2022-10-29T11:05:30.239Z,24.68
2022-10-29T11:08:10.498Z,24.78
2022-10-29T11:10:42.906Z,24.84
2022-10-29T11:13:18.459Z,24.99
2022-10-29T11:15:55.670Z,24.93
2022-10-29T11:18:30.662Z,25.06
2022-10-29T11:21:18.719Z,25.15
2022-10-29T11:23:56.367Z,25.24
2022-10-29T11:26:35.343Z,25.28
2022-10-29T11:29:21.959Z,25.34
2022-10-29T11:32:14.107Z,25.46
2022-10-29T11:35:08.953Z,25.54
2022-10-29T11:37:56.851Z,25.58
2022-10-29T11:40:46.644Z,25.70
2022-10-29T11:43:15.112Z,25.91
2022-10-29T11:46:15.067Z,26.03
2022-10-29T11:48:56.428Z,26.19
2022-10-29T11:51:41.276Z,26.27
2022-10-29T11:54:13.683Z,26.15
2022-10-29T11:56:54.756Z,26.39
2022-10-29T11:59:58.935Z,26.55
2022-10-29T12:03:02.600Z,26.39
2022-10-29T12:05:35.236Z,26.39
2022-10-29T12:08:17.233Z,26.51
2022-10-29T12:10:56.059Z,26.59
2022-10-29T12:13:29.907Z,26.64
2022-10-29T12:16:30.821Z,26.63
2022-10-29T12:19:16.199Z,26.69
2022-10-29T12:21:45.898Z,26.65
2022-10-29T12:24:41.462Z,26.74
2022-10-29T12:27:43.030Z,26.62
2022-10-29T12:30:12.216Z,26.61
2022-10-29T12:33:00.463Z,26.58
2022-10-29T12:35:42.336Z,26.56
2022-10-29T12:38:44.893Z,26.47
2022-10-29T12:41:19.207Z,26.49
2022-10-29T12:43:47.963Z,26.43
2022-10-29T12:46:30.285Z,26.27
2022-10-29T12:49:25.092Z,26.12
2022-10-29T12:54:53.367Z,25.79
2022-10-29T12:57:30.524Z,25.57
2022-10-29T12:59:58.531Z,25.50
2022-10-29T13:02:37.359Z,25.43
2022-10-29T13:05:07.153Z,25.34
2022-10-29T13:07:34.654Z,25.23
2022-10-29T13:10:22.973Z,25.13
2022-10-29T13:12:55.493Z,24.99
2022-10-29T13:15:24.436Z,24.79
2022-10-29T13:17:52.436Z,24.74
2022-10-29T13:20:27.781Z,24.67
2022-10-29T13:22:56.716Z,24.49
2022-10-29T13:25:36.178Z,24.54
2022-10-29T13:28:08.671Z,24.46
2022-10-29T13:30:37.305Z,24.39
2022-10-29T13:33:21.804Z,24.27
2022-10-29T13:36:27.530Z,24.20
2022-10-29T13:39:07.413Z,24.16
2022-10-29T13:41:43.357Z,24.06
2022-10-29T13:44:13.359Z,24.12
2022-10-29T13:47:05.121Z,24.09
2022-10-29T13:49:53.365Z,24.08
2022-10-29T13:52:21.820Z,23.97
2022-10-29T13:54:58.577Z,24.03
2022-10-29T13:57:29.528Z,23.99
2022-10-29T14:00:06.796Z,23.94
2022-10-29T14:02:36.827Z,23.92
2022-10-29T14:05:18.381Z,23.91
2022-10-29T14:07:55.860Z,23.92
2022-10-29T14:10:41.116Z,23.91
2022-10-29T14:13:13.539Z,23.91
2022-10-29T14:16:07.630Z,23.79
2022-10-29T14:18:37.735Z,23.79
2022-10-29T14:21:07.699Z,23.75
2022-10-29T14:23:34.315Z,23.64
2022-10-29T14:26:03.715Z,23.55
2022-10-29T14:28:32.367Z,23.52
2022-10-29T14:31:07.480Z,23.51
2022-10-29T14:33:36.905Z,23.35
2022-10-29T14:36:20.362Z,23.32
2022-10-29T14:38:54.020Z,23.32
2022-10-29T14:41:21.536Z,23.30
2022-10-29T14:44:10.751Z,23.27
2022-10-29T14:46:38.640Z,23.29
2022-10-29T14:49:22.186Z,23.18
2022-10-29T14:52:08.825Z,23.11
2022-10-29T14:54:39.510Z,23.06
2022-10-29T14:57:15.825Z,22.94
2022-10-29T14:59:52.908Z,22.78
2022-10-29T15:05:25.364Z,22.73
2022-10-29T15:08:03.060Z,22.66
2022-10-29T15:10:29.747Z,22.57
2022-10-29T15:12:57.365Z,22.50
2022-10-29T15:15:27.468Z,22.41
2022-10-29T15:18:07.416Z,22.28
2022-10-29T15:20:39.636Z,22.15
2022-10-29T15:23:12.596Z,22.10
2022-10-29T15:25:39.539Z,21.98
2022-10-29T15:28:12.161Z,21.94
2022-10-29T15:30:39.025Z,21.84
2022-10-29T15:33:08.248Z,21.68
2022-10-29T15:35:38.749Z,21.56
2022-10-29T15:38:05.462Z,21.43
2022-10-29T15:40:32.119Z,21.47
2022-10-29T15:43:29.559Z,21.34
2022-10-29T15:45:57.384Z,21.12
2022-10-29T15:48:36.168Z,21.12
2022-10-29T15:51:04.099Z,20.88
2022-10-29T15:53:30.702Z,20.88
2022-10-29T15:55:58.183Z,20.76
2022-10-29T15:58:24.752Z,20.65
2022-10-29T16:00:51.691Z,20.50
2022-10-29T16:03:21.915Z,20.19
2022-10-29T16:05:51.727Z,20.32
2022-10-29T16:08:27.046Z,20.21
2022-10-29T16:10:54.394Z,20.09
2022-10-29T16:13:22.546Z,20.02
2022-10-29T16:15:49.099Z,19.87
2022-10-29T16:18:15.705Z,19.80
2022-10-29T16:20:42.351Z,19.73
2022-10-29T16:23:12.258Z,19.56
2022-10-29T16:25:39.620Z,19.46
2022-10-29T16:28:06.943Z,19.33
2022-10-29T16:30:34.316Z,19.39
2022-10-29T16:33:01.911Z,19.30
2022-10-29T16:35:29.975Z,19.20
2022-10-29T16:37:57.481Z,19.11
2022-10-29T16:40:26.386Z,18.98
2022-10-29T16:42:54.976Z,18.87
2022-10-29T16:45:25.512Z,18.88
2022-10-29T16:47:52.613Z,18.86
2022-10-29T16:50:26.802Z,18.77
2022-10-29T16:53:06.709Z,18.83
2022-10-29T16:55:36.066Z,18.76
2022-10-29T16:58:02.654Z,18.63
2022-10-29T17:00:33.069Z,18.47
2022-10-29T17:03:04.761Z,18.56
2022-10-29T17:05:36.516Z,18.40
2022-10-29T17:08:03.334Z,18.44
2022-10-29T17:10:32.473Z,18.35
2022-10-29T17:13:00.158Z,18.34
2022-10-29T17:15:27.169Z,18.31
2022-10-29T17:17:53.793Z,18.27
2022-10-29T17:20:20.484Z,18.23
2022-10-29T17:22:47.021Z,18.19
2022-10-29T17:25:13.597Z,18.09
2022-10-29T17:27:41.216Z,17.81
2022-10-29T17:30:09.335Z,18.04
2022-10-29T17:32:36.207Z,17.99
2022-10-29T17:35:02.857Z,17.78
2022-10-29T17:37:29.523Z,17.79
2022-10-29T17:39:56.187Z,17.85
2022-10-29T17:42:22.847Z,17.78
2022-10-29T17:44:49.446Z,17.68
2022-10-29T17:47:16.004Z,17.66
2022-10-29T17:49:42.520Z,17.53
2022-10-29T17:52:09.057Z,17.62
2022-10-29T17:54:35.675Z,17.62
2022-10-29T17:57:02.366Z,17.52
2022-10-29T17:59:28.868Z,17.56
2022-10-29T18:01:55.543Z,17.38
2022-10-29T18:04:22.213Z,17.41
2022-10-29T18:06:48.858Z,17.35
2022-10-29T18:09:18.562Z,17.40
2022-10-29T18:11:50.237Z,17.31
2022-10-29T18:14:17.085Z,17.33
2022-10-29T18:16:43.653Z,17.29
2022-10-29T18:19:10.179Z,17.25
2022-10-29T18:21:36.713Z,17.23
2022-10-29T18:24:03.331Z,17.12
2022-10-29T18:26:36.758Z,17.12
2022-10-29T18:29:08.209Z,17.10
2022-10-29T18:31:35.186Z,17.01
2022-10-29T18:34:05.993Z,17.03
2022-10-29T18:36:35.461Z,16.97
2022-10-29T18:39:03.979Z,16.85
2022-10-29T18:41:31.112Z,16.92
2022-10-29T18:43:58.680Z,16.86
2022-10-29T18:46:25.774Z,16.84
2022-10-29T18:48:52.645Z,16.84
2022-10-29T18:51:27.704Z,16.83
2022-10-29T18:53:55.696Z,16.82
2022-10-29T18:56:22.750Z,16.79
2022-10-29T18:58:49.863Z,16.76
2022-10-29T19:01:23.051Z,16.56
2022-10-29T19:03:54.619Z,16.67
2022-10-29T19:06:22.519Z,16.63
2022-10-29T19:08:49.568Z,16.51
2022-10-29T19:11:22.270Z,16.42
2022-10-29T19:13:53.706Z,16.54
2022-10-29T19:16:21.199Z,16.51
2022-10-29T19:18:48.195Z,16.46
2022-10-29T19:21:17.700Z,16.42
2022-10-29T19:23:46.224Z,16.39
2022-10-29T19:26:17.811Z,16.38
2022-10-29T19:28:45.839Z,16.35
2022-10-29T19:31:23.580Z,16.40
2022-10-29T19:33:51.674Z,16.41
2022-10-29T19:36:18.875Z,16.42
2022-10-29T19:38:46.127Z,16.33
2022-10-29T19:41:14.365Z,16.38
2022-10-29T19:43:41.300Z,16.29
2022-10-29T19:46:10.216Z,16.20
2022-10-29T19:48:36.728Z,16.20
2022-10-29T19:51:03.421Z,16.30
2022-10-29T19:53:30.773Z,16.32
2022-10-29T19:55:57.449Z,16.29
2022-10-29T19:58:26.506Z,16.26
2022-10-29T20:00:54.252Z,16.28
2022-10-29T20:03:21.557Z,16.29
2022-10-29T20:05:49.040Z,16.19
2022-10-29T20:08:16.443Z,16.28
2022-10-29T20:10:43.599Z,16.24
2022-10-29T20:13:10.245Z,16.20
2022-10-29T20:15:39.897Z,16.25
2022-10-29T20:18:06.411Z,16.25
2022-10-29T20:20:32.934Z,16.27
2022-10-29T20:23:00.112Z,16.25
2022-10-29T20:25:27.580Z,16.18
2022-10-29T20:27:54.187Z,16.21
2022-10-29T20:30:20.930Z,16.17
2022-10-29T20:32:48.341Z,16.11
2022-10-29T20:35:15.315Z,16.23
2022-10-29T20:37:41.804Z,16.21
2022-10-29T20:40:08.980Z,16.25
2022-10-29T20:42:35.487Z,16.24
2022-10-29T20:45:02.008Z,16.26
2022-10-29T20:47:28.566Z,16.09
2022-10-29T20:49:55.034Z,16.17
2022-10-29T20:52:21.622Z,16.14
2022-10-29T20:54:48.243Z,16.16
2022-10-29T20:57:14.809Z,16.13
2022-10-29T20:59:42.149Z,16.16
2022-10-29T21:02:12.295Z,16.04
2022-10-29T21:04:39.136Z,16.06
2022-10-29T21:07:07.611Z,16.05
2022-10-29T21:09:34.214Z,15.99
2022-10-29T21:12:00.727Z,15.98
2022-10-29T21:14:28.206Z,15.91
2022-10-29T21:16:54.708Z,15.90
2022-10-29T21:19:22.776Z,15.58
2022-10-29T21:21:49.274Z,15.80
2022-10-29T21:24:16.596Z,15.70
2022-10-29T21:26:43.179Z,15.75
2022-10-29T21:29:09.761Z,15.75
2022-10-29T21:31:36.303Z,15.73
2022-10-29T21:34:02.925Z,15.67
2022-10-29T21:36:29.436Z,15.69
2022-10-29T21:38:56.098Z,15.68
2022-10-29T21:41:22.597Z,15.61
2022-10-29T21:43:49.095Z,15.56
2022-10-29T21:46:15.647Z,15.41
2022-10-29T21:48:42.178Z,15.63
2022-10-29T21:51:13.733Z,15.56
2022-10-29T21:53:40.416Z,15.58
2022-10-29T21:56:09.918Z,15.55
2022-10-29T21:58:36.432Z,15.41
2022-10-29T22:01:06.164Z,15.50
2022-10-29T22:03:34.388Z,15.40
2022-10-29T22:06:05.914Z,15.41
2022-10-29T22:08:33.657Z,15.35
2022-10-29T22:11:00.537Z,15.34
2022-10-29T22:13:31.475Z,15.28
2022-10-29T22:15:58.215Z,15.23
2022-10-29T22:18:25.782Z,15.15
2022-10-29T22:21:15.391Z,15.10
2022-10-29T22:23:55.863Z,15.08
2022-10-29T22:26:24.821Z,15.07
2022-10-29T22:28:51.414Z,14.95
2022-10-29T22:31:19.863Z,14.97
2022-10-29T22:33:47.155Z,14.93
2022-10-29T22:36:24.922Z,14.89
2022-10-29T22:38:59.579Z,14.85
2022-10-29T22:41:27.175Z,14.78
2022-10-29T22:43:53.874Z,14.65
2022-10-29T22:46:21.538Z,14.70
2022-10-29T22:48:48.497Z,14.64
2022-10-29T22:51:17.679Z,14.60
2022-10-29T22:53:45.357Z,14.54
2022-10-29T22:56:17.840Z,14.49
2022-10-29T22:58:44.587Z,14.45
2022-10-29T23:01:14.593Z,14.40
2022-10-29T23:03:41.967Z,14.45
2022-10-29T23:06:10.839Z,14.39
2022-10-29T23:08:37.762Z,14.27
2022-10-29T23:11:22.203Z,14.24
2022-10-29T23:13:51.677Z,14.26
2022-10-29T23:16:18.652Z,14.30
2022-10-29T23:18:50.219Z,14.28
2022-10-29T23:21:17.421Z,14.27
2022-10-29T23:23:44.145Z,14.22
2022-10-29T23:26:11.599Z,14.19
2022-10-29T23:28:39.733Z,14.18
2022-10-29T23:31:12.899Z,14.17
2022-10-29T23:33:47.777Z,14.19
2022-10-29T23:36:15.881Z,14.17
2022-10-29T23:38:42.532Z,14.12
2022-10-29T23:41:09.121Z,14.09
2022-10-29T23:43:35.870Z,14.09
2022-10-29T23:46:02.888Z,14.01
2022-10-29T23:48:29.665Z,14.04
2022-10-29T23:50:56.623Z,14.03
2022-10-29T23:53:24.338Z,14.02
2022-10-29T23:55:51.049Z,14.01
2022-10-29T23:58:18.244Z,13.94
